createdAt,value
2023-03-07T00:01:28.047Z,2.97
2023-03-07T00:04:04.037Z,3.83
2023-03-07T00:06:36.327Z,4.83
2023-03-07T00:09:08.282Z,4.37
2023-03-07T00:11:39.799Z,3.27
2023-03-07T00:14:10.283Z,4.28
2023-03-07T00:16:39.404Z,2.93
2023-03-07T00:19:09.337Z,3.93
2023-03-07T00:27:25.578Z,3.27
2023-03-07T00:30:07.589Z,5.53
2023-03-07T00:35:10.494Z,4.30
2023-03-07T00:37:52.343Z,4.43
2023-03-07T00:40:30.982Z,3.33
2023-03-07T00:43:07.561Z,2.83
2023-03-07T00:45:43.760Z,3.97
2023-03-07T00:48:27.709Z,5.53
2023-03-07T00:51:05.143Z,3.20
2023-03-07T00:53:35.560Z,4.37
2023-03-07T00:56:11.782Z,4.57
2023-03-07T00:58:42.276Z,4.30
2023-03-07T01:01:20.725Z,3.90
2023-03-07T01:06:41.632Z,3.90
2023-03-07T01:09:22.367Z,4.40
2023-03-07T01:11:54.535Z,3.60
2023-03-07T01:14:26.266Z,4.23
2023-03-07T01:17:06.666Z,3.77
2023-03-07T01:19:49.137Z,4.93
2023-03-07T01:22:29.800Z,5.30
2023-03-07T01:25:00.903Z,4.20
2023-03-07T01:27:32.564Z,4.53
2023-03-07T01:30:03.465Z,5.13
2023-03-07T01:32:37.501Z,4.03
2023-03-07T01:35:12.357Z,5.00
2023-03-07T01:37:53.195Z,3.90
2023-03-07T01:40:34.475Z,4.22
2023-03-07T01:43:37.796Z,4.97
2023-03-07T01:46:20.770Z,4.80
2023-03-07T01:48:57.142Z,4.23
2023-03-07T01:51:26.621Z,3.37
2023-03-07T01:53:58.700Z,4.27
2023-03-07T01:56:33.458Z,4.20
2023-03-07T01:59:12.988Z,4.00
2023-03-07T02:01:45.334Z,5.17
2023-03-07T02:04:28.489Z,5.23
2023-03-07T02:07:02.498Z,4.40
2023-03-07T02:09:36.664Z,4.40
2023-03-07T02:12:08.571Z,5.03
2023-03-07T02:14:39.331Z,5.20
2023-03-07T02:17:18.511Z,4.70
2023-03-07T02:20:31.104Z,4.73
2023-03-07T02:23:07.738Z,5.17
2023-03-07T02:25:47.466Z,4.57
2023-03-07T02:28:19.245Z,5.50
2023-03-07T02:31:15.989Z,4.65
2023-03-07T02:39:24.839Z,4.20
2023-03-07T02:42:02.131Z,5.40
2023-03-07T02:45:06.258Z,4.03
2023-03-07T02:47:59.297Z,2.47
2023-03-07T02:51:13.173Z,4.20
2023-03-07T02:53:53.628Z,3.03
2023-03-07T02:56:31.108Z,4.68
2023-03-07T02:59:02.392Z,5.30
2023-03-07T03:01:35.471Z,4.57
2023-03-07T03:04:11.076Z,5.03
2023-03-07T03:06:42.156Z,4.10
2023-03-07T03:09:15.942Z,4.00
2023-03-07T03:11:47.377Z,4.67
2023-03-07T03:14:21.995Z,4.70
2023-03-07T03:17:11.639Z,5.50
2023-03-07T03:19:49.448Z,3.87
2023-03-07T03:22:22.211Z,4.67
2023-03-07T03:24:55.893Z,4.93
2023-03-07T03:27:39.104Z,4.47
2023-03-07T03:30:17.372Z,4.10
2023-03-07T03:32:51.983Z,7.07
2023-03-07T03:35:24.067Z,4.40
2023-03-07T03:37:54.889Z,4.63
2023-03-07T03:40:30.164Z,6.22
2023-03-07T03:43:01.893Z,4.63
2023-03-07T03:45:29.852Z,3.27
2023-03-07T03:48:01.437Z,3.67
2023-03-07T03:50:35.646Z,3.42
2023-03-07T03:53:04.871Z,5.33
2023-03-07T03:55:39.833Z,3.53
2023-03-07T03:58:13.456Z,3.97
2023-03-07T04:00:49.941Z,5.23
2023-03-07T04:03:21.038Z,4.00
2023-03-07T04:05:49.049Z,4.78
2023-03-07T04:08:21.100Z,4.33
2023-03-07T04:10:54.479Z,3.97
2023-03-07T04:13:25.556Z,4.10
2023-03-07T04:16:00.335Z,4.43
2023-03-07T04:18:36.167Z,3.87
2023-03-07T04:21:09.220Z,4.17
2023-03-07T04:23:43.211Z,3.83
2023-03-07T04:26:17.149Z,4.83
2023-03-07T04:28:48.254Z,3.67
2023-03-07T04:31:32.986Z,2.70
2023-03-07T04:34:10.795Z,4.10
2023-03-07T04:36:50.190Z,4.23
2023-03-07T04:39:37.154Z,3.00
2023-03-07T04:42:12.100Z,4.33
2023-03-07T04:44:42.923Z,3.87
2023-03-07T04:47:13.809Z,3.63
2023-03-07T04:49:43.931Z,4.87
2023-03-07T04:52:20.360Z,4.00
2023-03-07T04:54:53.395Z,3.63
2023-03-07T04:57:27.316Z,4.20
2023-03-07T04:59:57.969Z,3.73
2023-03-07T05:02:29.866Z,4.77
2023-03-07T05:05:01.571Z,3.23
2023-03-07T05:07:36.156Z,5.55
2023-03-07T05:10:06.174Z,4.13
2023-03-07T05:12:38.928Z,5.10
2023-03-07T05:15:14.954Z,4.20
2023-03-07T05:17:46.523Z,3.87
2023-03-07T05:20:17.461Z,3.30
2023-03-07T05:22:55.381Z,3.78
2023-03-07T05:25:29.434Z,4.23
2023-03-07T05:27:59.696Z,3.17
2023-03-07T05:30:29.001Z,3.07
2023-03-07T05:32:59.091Z,5.27
2023-03-07T05:35:33.106Z,5.07
2023-03-07T05:38:06.730Z,4.10
2023-03-07T05:40:40.802Z,3.37
2023-03-07T05:43:15.378Z,4.17
2023-03-07T05:48:32.076Z,3.20
2023-03-07T05:51:09.920Z,3.50
2023-03-07T05:53:41.642Z,3.60
2023-03-07T05:56:13.351Z,3.22
2023-03-07T05:58:44.224Z,4.90
2023-03-07T06:04:05.635Z,4.10
2023-03-07T06:06:35.267Z,3.90
2023-03-07T06:09:12.107Z,5.03
2023-03-07T06:11:41.082Z,5.30
2023-03-07T06:14:14.410Z,4.90
2023-03-07T06:16:52.686Z,5.30
2023-03-07T06:19:27.315Z,3.87
2023-03-07T06:22:01.342Z,5.53
2023-03-07T06:24:39.084Z,5.07
2023-03-07T06:30:08.648Z,4.90
2023-03-07T06:32:40.858Z,4.43
2023-03-07T06:35:13.244Z,5.23
2023-03-07T06:37:48.705Z,5.23
2023-03-07T06:40:29.359Z,3.83
2023-03-07T06:43:05.874Z,4.22
2023-03-07T06:45:36.801Z,4.00
2023-03-07T06:48:08.489Z,5.13
2023-03-07T06:50:41.681Z,4.25
2023-03-07T06:53:15.312Z,5.03
2023-03-07T06:55:44.659Z,4.23
2023-03-07T06:58:24.868Z,5.90
2023-03-07T07:00:55.818Z,4.70
2023-03-07T07:03:31.032Z,5.25
2023-03-07T07:06:07.775Z,6.47
2023-03-07T07:08:41.318Z,5.10
2023-03-07T07:11:13.632Z,4.53
2023-03-07T07:13:42.780Z,4.57
2023-03-07T07:16:15.813Z,4.60
2023-03-07T07:18:49.420Z,3.70
2023-03-07T07:21:21.997Z,3.93
2023-03-07T07:23:55.578Z,4.47
2023-03-07T07:26:39.341Z,5.00
2023-03-07T07:29:10.340Z,3.60
2023-03-07T07:31:42.013Z,3.38
2023-03-07T07:37:11.523Z,4.53
2023-03-07T07:39:48.405Z,3.80
2023-03-07T07:42:26.078Z,3.77
2023-03-07T07:45:16.493Z,3.97
2023-03-07T07:47:47.792Z,3.13
2023-03-07T07:53:18.496Z,4.07
2023-03-07T07:55:51.263Z,4.83
2023-03-07T07:58:28.603Z,4.93
2023-03-07T08:01:09.571Z,4.30
2023-03-07T08:06:16.477Z,3.67
2023-03-07T08:08:50.954Z,4.00
2023-03-07T08:11:23.732Z,6.27
2023-03-07T08:14:01.536Z,4.70
2023-03-07T08:16:35.581Z,4.97
2023-03-07T08:19:20.721Z,3.37
2023-03-07T08:21:54.404Z,3.07
2023-03-07T08:24:39.661Z,3.40
2023-03-07T08:27:19.978Z,4.73
2023-03-07T08:29:51.279Z,5.73
2023-03-07T08:32:27.231Z,5.60
2023-03-07T08:34:58.041Z,5.53
2023-03-07T08:37:31.678Z,3.13
2023-03-07T08:40:07.097Z,5.97
2023-03-07T08:42:40.472Z,3.50
2023-03-07T08:45:22.944Z,4.23
2023-03-07T08:48:03.085Z,3.83
2023-03-07T08:50:38.937Z,3.03
2023-03-07T08:53:12.851Z,5.37
2023-03-07T08:55:46.752Z,4.70
2023-03-07T08:58:15.880Z,5.17
2023-03-07T09:00:47.824Z,5.13
2023-03-07T09:03:25.931Z,3.80
2023-03-07T09:05:59.404Z,3.90
2023-03-07T09:08:32.301Z,5.00
2023-03-07T09:11:08.367Z,3.70
2023-03-07T09:13:49.737Z,4.50
2023-03-07T09:16:22.239Z,4.13
2023-03-07T09:21:38.263Z,5.23
2023-03-07T09:24:09.178Z,4.80
2023-03-07T09:26:44.795Z,3.90
2023-03-07T09:29:20.746Z,4.80
2023-03-07T09:31:52.712Z,4.73
2023-03-07T09:34:24.157Z,5.13
2023-03-07T09:37:04.282Z,4.07
2023-03-07T09:39:37.689Z,4.33
2023-03-07T09:42:50.475Z,2.53
2023-03-07T09:45:39.250Z,4.70
2023-03-07T09:48:38.393Z,4.73
2023-03-07T09:51:40.976Z,4.67
2023-03-07T09:54:25.623Z,4.57
2023-03-07T09:57:04.530Z,6.00
2023-03-07T09:59:49.725Z,4.00
2023-03-07T10:02:22.012Z,4.87
2023-03-07T10:05:07.333Z,5.23
2023-03-07T10:07:47.186Z,5.43
2023-03-07T10:10:33.218Z,4.00
2023-03-07T10:13:30.426Z,5.50
2023-03-07T10:16:07.805Z,5.60
2023-03-07T10:19:08.656Z,4.70
2023-03-07T10:21:39.131Z,5.07
2023-03-07T10:24:45.021Z,6.10
2023-03-07T10:27:21.148Z,5.10
2023-03-07T10:29:57.454Z,4.50
2023-03-07T10:32:43.907Z,4.57
2023-03-07T10:35:14.609Z,4.60
2023-03-07T10:37:59.570Z,4.37
2023-03-07T10:41:09.975Z,5.17
2023-03-07T10:43:43.501Z,3.47
2023-03-07T10:46:27.136Z,5.13
2023-03-07T10:49:29.474Z,5.70
2023-03-07T10:52:12.745Z,6.17
2023-03-07T10:54:49.060Z,3.50
2023-03-07T10:57:19.974Z,4.80
2023-03-07T11:02:50.725Z,3.85
2023-03-07T11:05:37.684Z,4.67
2023-03-07T11:08:37.930Z,6.13
2023-03-07T11:11:13.480Z,5.10
2023-03-07T11:13:45.097Z,5.17
2023-03-07T11:16:31.597Z,4.32
2023-03-07T11:19:06.130Z,4.60
2023-03-07T11:21:37.527Z,4.83
2023-03-07T11:24:46.659Z,3.25
2023-03-07T11:27:29.047Z,5.00
2023-03-07T11:33:30.178Z,4.87
2023-03-07T11:36:19.705Z,6.47
2023-03-07T11:39:12.200Z,5.27
2023-03-07T11:42:21.082Z,5.30
2023-03-07T11:45:08.037Z,5.07
2023-03-07T11:48:07.685Z,5.43
2023-03-07T11:50:42.640Z,4.97
2023-03-07T11:53:34.446Z,5.50
2023-03-07T11:56:23.692Z,4.43
2023-03-07T11:59:23.350Z,5.67
2023-03-07T12:02:10.923Z,6.33
2023-03-07T12:05:23.620Z,6.00
2023-03-07T12:08:22.556Z,4.40
2023-03-07T12:11:14.577Z,4.97
2023-03-07T12:14:28.421Z,5.50
2023-03-07T12:17:34.350Z,4.80
2023-03-07T12:20:45.494Z,5.00
2023-03-07T12:23:36.936Z,5.93
2023-03-07T12:26:15.775Z,5.50
2023-03-07T12:29:10.358Z,5.67
2023-03-07T12:31:45.586Z,5.93
2023-03-07T12:34:37.667Z,5.77
2023-03-07T12:37:52.657Z,6.03
2023-03-07T12:40:35.962Z,5.83
2023-03-07T12:43:30.755Z,4.53
2023-03-07T12:46:51.845Z,5.30
2023-03-07T12:49:49.644Z,5.20
2023-03-07T12:52:39.110Z,5.77
2023-03-07T12:55:44.084Z,7.00
2023-03-07T12:58:37.821Z,4.90
2023-03-07T13:01:15.277Z,5.47
2023-03-07T13:04:06.255Z,5.80
2023-03-07T13:06:40.978Z,5.40
2023-03-07T13:09:45.991Z,5.30
2023-03-07T13:12:34.486Z,6.43
2023-03-07T13:15:57.694Z,6.57
2023-03-07T13:18:42.998Z,5.07
2023-03-07T13:21:37.215Z,5.57
2023-03-07T13:24:42.628Z,5.47
2023-03-07T13:27:53.442Z,5.80
2023-03-07T13:30:37.671Z,4.73
2023-03-07T13:33:30.964Z,6.77
2023-03-07T13:36:01.220Z,6.20
2023-03-07T13:38:38.490Z,4.93
2023-03-07T13:41:09.492Z,5.17
2023-03-07T13:44:01.585Z,6.55
2023-03-07T13:47:01.662Z,6.88
2023-03-07T13:49:41.900Z,6.47
2023-03-07T13:52:52.405Z,6.13
2023-03-07T13:55:41.227Z,4.77
2023-03-07T13:58:42.141Z,5.53
2023-03-07T14:01:43.996Z,6.93
2023-03-07T14:04:59.810Z,7.40
2023-03-07T14:07:44.141Z,5.90
2023-03-07T14:10:34.477Z,5.83
2023-03-07T14:13:19.422Z,5.77
2023-03-07T14:16:32.521Z,6.83
2023-03-07T14:19:52.791Z,6.50
2023-03-07T14:22:50.047Z,7.17
2023-03-07T14:25:26.109Z,6.63
2023-03-07T14:28:31.714Z,5.97
2023-03-07T14:31:11.014Z,4.87
2023-03-07T14:33:49.675Z,6.70
2023-03-07T14:36:37.905Z,6.03
2023-03-07T14:39:11.629Z,5.77
2023-03-07T14:42:04.595Z,7.23
2023-03-07T14:44:56.694Z,5.57
2023-03-07T14:50:20.209Z,4.43
2023-03-07T14:52:55.725Z,4.93
2023-03-07T14:55:26.629Z,6.77
2023-03-07T14:58:04.815Z,5.50
2023-03-07T15:00:40.836Z,6.03
2023-03-07T15:03:14.261Z,5.73
2023-03-07T15:05:55.661Z,6.87
2023-03-07T15:08:41.061Z,5.63
2023-03-07T15:11:59.319Z,6.27
2023-03-07T15:14:55.743Z,5.87
2023-03-07T15:17:44.757Z,5.93
2023-03-07T15:20:58.258Z,6.07
2023-03-07T15:23:40.530Z,5.03
2023-03-07T15:26:10.977Z,5.70
2023-03-07T15:28:49.176Z,5.20
2023-03-07T15:31:22.610Z,6.30
2023-03-07T15:33:56.543Z,6.00
2023-03-07T15:36:28.300Z,5.63
2023-03-07T15:39:27.715Z,6.30
2023-03-07T15:42:06.660Z,5.30
2023-03-07T15:44:37.326Z,6.90
2023-03-07T15:47:26.340Z,7.87
2023-03-07T15:50:05.013Z,8.10
2023-03-07T15:52:50.950Z,8.63
2023-03-07T15:55:22.132Z,7.03
2023-03-07T15:58:15.709Z,6.67
2023-03-07T16:00:48.520Z,5.93
2023-03-07T16:03:42.870Z,6.10
2023-03-07T16:06:57.963Z,6.17
2023-03-07T16:09:41.561Z,6.07
2023-03-07T16:12:22.435Z,7.30
2023-03-07T16:15:01.092Z,8.53
2023-03-07T16:17:41.492Z,6.37
2023-03-07T16:20:27.790Z,4.23
2023-03-07T16:22:57.156Z,2.93
2023-03-07T16:25:37.691Z,2.50
2023-03-07T16:28:11.684Z,3.23
2023-03-07T16:30:44.884Z,3.30
2023-03-07T16:33:22.206Z,2.17
2023-03-07T16:36:04.094Z,3.03
2023-03-07T16:38:34.774Z,3.83
2023-03-07T16:41:06.627Z,4.73
2023-03-07T16:43:49.151Z,4.65
2023-03-07T16:46:30.839Z,4.50
2023-03-07T16:49:10.047Z,5.57
2023-03-07T16:52:04.730Z,2.70
2023-03-07T16:54:37.656Z,4.60
2023-03-07T16:57:10.760Z,3.37
2023-03-07T16:59:43.324Z,3.03
2023-03-07T17:02:19.679Z,3.40
2023-03-07T17:04:53.509Z,3.07
2023-03-07T17:07:26.596Z,2.60
2023-03-07T17:10:05.542Z,4.13
2023-03-07T17:12:35.895Z,6.73
2023-03-07T17:15:11.770Z,5.93
2023-03-07T17:17:46.340Z,4.90
2023-03-07T17:20:28.913Z,3.67
2023-03-07T17:22:59.113Z,3.07
2023-03-07T17:25:33.641Z,14.43
2023-03-07T17:28:06.974Z,7.40
2023-03-07T17:30:43.207Z,6.30
2023-03-07T17:33:26.941Z,4.70
2023-03-07T17:35:58.516Z,6.87
2023-03-07T17:38:29.317Z,5.45
2023-03-07T17:41:00.792Z,4.30
2023-03-07T17:43:35.743Z,5.85
2023-03-07T17:46:10.302Z,6.20
2023-03-07T17:49:08.611Z,7.83
2023-03-07T17:51:46.280Z,11.47
2023-03-07T17:54:20.374Z,15.93
2023-03-07T17:56:50.976Z,7.53
2023-03-07T17:59:26.745Z,7.10
2023-03-07T18:01:58.844Z,5.93
2023-03-07T18:04:30.837Z,4.43
2023-03-07T18:09:34.305Z,7.63
2023-03-07T18:12:17.262Z,5.83
2023-03-07T18:14:44.976Z,5.77
2023-03-07T18:17:22.811Z,5.67
2023-03-07T18:20:06.284Z,4.97
2023-03-07T18:22:36.624Z,3.97
2023-03-07T18:25:18.899Z,6.23
2023-03-07T18:27:55.997Z,5.63
2023-03-07T18:30:27.583Z,3.87
2023-03-07T18:32:58.860Z,2.97
2023-03-07T18:35:36.669Z,3.78
2023-03-07T18:38:08.664Z,3.30
2023-03-07T18:40:43.006Z,3.43
2023-03-07T18:43:13.733Z,3.60
2023-03-07T18:45:48.366Z,5.20
2023-03-07T18:48:19.453Z,5.27
2023-03-07T18:51:12.842Z,3.15
2023-03-07T18:53:53.867Z,4.40
2023-03-07T18:56:25.712Z,3.75
2023-03-07T18:59:05.844Z,4.45
2023-03-07T19:01:46.904Z,5.30
2023-03-07T19:04:24.971Z,6.50
2023-03-07T19:07:00.896Z,7.27
2023-03-07T19:09:47.524Z,6.27
2023-03-07T19:12:23.158Z,4.20
2023-03-07T19:14:56.337Z,4.40
2023-03-07T19:17:41.245Z,3.87
2023-03-07T19:20:17.127Z,6.40
2023-03-07T19:22:52.998Z,6.27
2023-03-07T19:25:29.355Z,8.43
2023-03-07T19:27:59.931Z,6.93
2023-03-07T19:30:36.602Z,19.17
2023-03-07T19:33:13.139Z,20.60
2023-03-07T19:35:46.224Z,12.00
2023-03-07T19:38:21.316Z,13.87
2023-03-07T19:40:53.764Z,14.70
2023-03-07T19:43:24.920Z,13.03
2023-03-07T19:45:59.142Z,6.23
2023-03-07T19:48:27.961Z,8.27
2023-03-07T19:50:59.925Z,13.93
2023-03-07T19:55:56.444Z,10.20
2023-03-07T19:58:29.679Z,11.40
2023-03-07T20:01:03.730Z,6.77
2023-03-07T20:03:34.363Z,8.07
2023-03-07T20:06:13.099Z,9.73
2023-03-07T20:08:43.433Z,7.07
2023-03-07T20:11:19.176Z,7.53
2023-03-07T20:13:48.369Z,6.23
2023-03-07T20:16:26.550Z,7.93
2023-03-07T20:18:56.022Z,6.13
2023-03-07T20:21:27.835Z,4.77
2023-03-07T20:24:12.366Z,4.13
2023-03-07T20:26:43.738Z,3.90
2023-03-07T20:29:14.582Z,5.38
2023-03-07T20:36:57.802Z,3.87
2023-03-07T20:39:27.947Z,4.93
2023-03-07T20:42:02.234Z,5.33
2023-03-07T20:44:35.330Z,4.10
2023-03-07T20:47:05.621Z,5.30
2023-03-07T20:49:35.967Z,5.20
2023-03-07T20:52:07.553Z,5.57
2023-03-07T20:54:38.047Z,4.50
2023-03-07T20:57:16.115Z,4.57
2023-03-07T20:59:46.037Z,4.80
2023-03-07T21:02:23.802Z,6.03
2023-03-07T21:04:59.743Z,3.43
2023-03-07T21:07:37.040Z,3.60
2023-03-07T21:10:05.063Z,4.13
2023-03-07T21:12:36.661Z,5.37
2023-03-07T21:17:48.923Z,3.95
2023-03-07T21:23:07.480Z,4.37
2023-03-07T21:25:39.198Z,5.03
2023-03-07T21:28:11.705Z,4.82
2023-03-07T21:30:44.715Z,3.80
2023-03-07T21:33:19.206Z,4.13
2023-03-07T21:35:49.706Z,3.80
2023-03-07T21:38:22.127Z,2.38
2023-03-07T21:40:51.125Z,2.53
2023-03-07T21:46:07.711Z,2.83
2023-03-07T21:51:20.240Z,1.60
2023-03-07T21:54:07.641Z,0.87
2023-03-07T21:56:38.267Z,1.23
2023-03-07T21:59:11.696Z,0.83
2023-03-07T22:01:41.985Z,1.67
2023-03-07T22:04:09.970Z,1.20
2023-03-07T22:06:51.740Z,0.87
2023-03-07T22:09:26.075Z,0.80
2023-03-07T22:11:56.493Z,0.97
2023-03-07T22:14:25.647Z,1.90
2023-03-07T22:17:01.347Z,1.23
2023-03-07T22:19:36.815Z,1.20
2023-03-07T22:22:10.312Z,2.30
2023-03-07T22:24:46.796Z,2.87
2023-03-07T22:27:18.238Z,3.20
2023-03-07T22:29:48.003Z,3.33
2023-03-07T22:32:45.856Z,4.20
2023-03-07T22:35:16.493Z,3.20
2023-03-07T22:37:47.999Z,3.20
2023-03-07T22:40:18.236Z,3.70
2023-03-07T22:42:54.331Z,3.23
2023-03-07T22:45:28.150Z,4.20
2023-03-07T22:48:01.907Z,3.97
2023-03-07T22:50:30.921Z,4.20
2023-03-07T22:53:07.443Z,2.97
2023-03-07T22:55:49.561Z,1.47
2023-03-07T22:58:33.896Z,2.70
2023-03-07T23:01:13.191Z,1.97
2023-03-07T23:03:45.231Z,2.27
2023-03-07T23:06:22.115Z,2.10
2023-03-07T23:08:55.351Z,2.67
2023-03-07T23:11:41.702Z,2.53
2023-03-07T23:14:13.906Z,3.50
2023-03-07T23:16:50.642Z,3.30
2023-03-07T23:19:22.170Z,2.07
2023-03-07T23:21:54.132Z,3.92
2023-03-07T23:26:53.973Z,5.23
2023-03-07T23:29:31.889Z,6.18
2023-03-07T23:32:05.606Z,4.63
2023-03-07T23:34:42.590Z,5.33
2023-03-07T23:37:14.720Z,4.20
2023-03-07T23:39:43.285Z,4.30
2023-03-07T23:42:17.680Z,5.40
2023-03-07T23:44:54.087Z,3.83
2023-03-07T23:50:16.702Z,4.03
2023-03-07T23:52:50.227Z,5.30
2023-03-07T23:55:21.845Z,4.53
2023-03-07T23:57:51.449Z,4.78
